Time;durP1;ratioP1;P1;durP2;ratioP2;P2;SDS_P1;SDS_P2;PMS_P1;PMS_P2;Temp;Humidity;BMP_temperature;BMP_pressure;BME280_temperature;BME280_humidity;BME280_pressure;Samples;Min_cycle;Max_cycle;Signal;HPM_P1;HPM_P2
2022/05/04 00:01:57;;;;;;;15.95;10.55;;;;;;;11.89;100.00;101478.72;1941835;73;21123;-73
2022/05/04 00:04:25;;;;;;;16.23;10.50;;;;;;;11.86;100.00;101475.69;1946805;73;21531;-73
2022/05/04 00:06:52;;;;;;;17.45;10.78;;;;;;;11.84;100.00;101472.22;1930934;73;21423;-73
2022/05/04 00:09:20;;;;;;;18.10;10.00;;;;;;;11.90;100.00;101466.27;1944417;73;21430;-73
2022/05/04 00:11:47;;;;;;;22.85;11.25;;;;;;;11.81;100.00;101465.34;1931583;73;21100;-73
2022/05/04 00:14:14;;;;;;;17.65;10.20;;;;;;;11.80;100.00;101466.61;1929457;72;21159;-73
2022/05/04 00:16:42;;;;;;;20.45;10.48;;;;;;;11.78;100.00;101465.30;1951097;72;21030;-73
2022/05/04 00:19:09;;;;;;;20.60;11.55;;;;;;;11.72;100.00;101466.09;1953137;72;21095;-73
2022/05/04 00:21:37;;;;;;;22.27;11.80;;;;;;;11.65;100.00;101464.30;1954419;73;21049;-73
2022/05/04 00:24:05;;;;;;;18.92;10.30;;;;;;;11.61;100.00;101453.12;1954398;73;21486;-73
2022/05/04 00:26:32;;;;;;;18.90;10.75;;;;;;;11.63;100.00;101455.70;1930741;72;20990;-73
2022/05/04 00:28:59;;;;;;;19.52;10.15;;;;;;;11.54;100.00;101455.62;1954501;72;21132;-73
2022/05/04 00:31:27;;;;;;;20.00;10.93;;;;;;;11.51;100.00;101451.27;1933584;73;21037;-73
2022/05/04 00:33:54;;;;;;;18.45;11.15;;;;;;;11.41;100.00;101452.88;1952775;72;21079;-73
2022/05/04 00:36:22;;;;;;;20.05;10.82;;;;;;;11.43;100.00;101452.89;1954005;72;21033;-73
2022/05/04 00:38:50;;;;;;;18.80;11.88;;;;;;;11.48;100.00;101450.81;1954833;73;21025;-73
2022/05/04 00:41:17;;;;;;;22.05;12.30;;;;;;;11.32;100.00;101450.20;1953837;72;21537;-73
2022/05/04 00:43:52;;;;;;;20.82;11.70;;;;;;;11.32;100.00;101469.09;1947988;72;21123;-73
2022/05/04 00:46:21;;;;;;;21.85;11.78;;;;;;;11.30;100.00;101462.20;1953960;73;21037;-73
2022/05/04 00:48:49;;;;;;;23.02;12.35;;;;;;;11.43;100.00;101468.34;1952742;72;21057;-73
2022/05/04 00:51:16;;;;;;;22.60;12.33;;;;;;;11.40;100.00;101477.33;1954956;72;21035;-73
2022/05/04 00:53:44;;;;;;;19.37;11.08;;;;;;;11.39;100.00;101474.29;1954572;73;21069;-73
2022/05/04 00:56:13;;;;;;;22.48;11.65;;;;;;;11.25;100.00;101464.70;1954189;73;21104;-73
2022/05/04 00:58:56;;;;;;;25.17;12.65;;;;;;;11.20;100.00;101469.78;1952587;72;21041;-73
2022/05/04 01:01:26;;;;;;;24.40;11.53;;;;;;;11.29;100.00;101470.33;1953137;72;21045;-73
2022/05/04 01:03:56;;;;;;;24.07;13.18;;;;;;;11.17;100.00;101469.73;1955016;72;21037;-73
2022/05/04 01:06:24;;;;;;;23.77;13.08;;;;;;;11.27;100.00;101468.14;1954412;72;21189;-74
2022/05/04 01:08:53;;;;;;;25.25;13.18;;;;;;;11.18;100.00;101464.18;1953667;73;21030;-74
2022/05/04 01:11:21;;;;;;;23.42;12.65;;;;;;;11.32;100.00;101466.52;1952934;72;21510;-74
2022/05/04 01:14:08;;;;;;;23.52;13.32;;;;;;;11.18;100.00;101475.75;1942878;73;21041;-74
2022/05/04 01:16:38;;;;;;;27.00;12.68;;;;;;;10.99;100.00;101469.51;1942613;72;21046;-74
2022/05/04 01:19:06;;;;;;;26.73;13.22;;;;;;;11.06;100.00;101464.89;1944810;72;21037;-73
2022/05/04 01:21:34;;;;;;;23.27;13.03;;;;;;;11.00;100.00;101465.67;1946825;73;21065;-73
2022/05/04 01:24:02;;;;;;;27.02;13.62;;;;;;;11.04;100.00;101466.16;1946413;74;21172;-73
2022/05/04 01:26:29;;;;;;;23.30;12.80;;;;;;;10.96;100.00;101466.03;1944044;72;21050;-73
2022/05/04 01:28:57;;;;;;;24.05;13.65;;;;;;;11.02;100.00;101460.11;1944346;72;20991;-73
2022/05/04 01:31:25;;;;;;;19.37;11.30;;;;;;;10.94;100.00;101466.86;1924848;72;21443;-73
2022/05/04 01:33:52;;;;;;;28.07;14.47;;;;;;;10.87;100.00;101481.75;1946711;74;21453;-73
2022/05/04 01:36:20;;;;;;;22.15;12.80;;;;;;;10.86;100.00;101483.89;1944651;74;21091;-73
2022/05/04 01:38:47;;;;;;;25.27;14.05;;;;;;;10.73;100.00;101477.28;1946209;74;21096;-73
2022/05/04 01:44:00;;;;;;;22.27;12.90;;;;;;;10.83;100.00;101473.14;1949219;72;21066;-73
2022/05/04 01:46:27;;;;;;;26.60;13.62;;;;;;;10.78;100.00;101479.48;1949264;72;21038;-73
2022/05/04 01:48:55;;;;;;;23.00;13.75;;;;;;;10.80;100.00;101485.95;1949174;72;21132;-73
2022/05/04 01:51:22;;;;;;;23.67;13.55;;;;;;;10.78;100.00;101488.92;1949130;72;21096;-73
2022/05/04 01:53:50;;;;;;;22.32;14.25;;;;;;;10.76;100.00;101491.47;1949155;72;21025;-73
2022/05/04 01:56:18;;;;;;;26.73;13.88;;;;;;;10.80;100.00;101503.94;1949254;74;21042;-73
2022/05/04 01:58:45;;;;;;;30.08;14.75;;;;;;;10.74;100.00;101511.13;1944072;72;21533;-73
2022/05/04 02:01:12;;;;;;;25.72;14.30;;;;;;;10.67;100.00;101516.60;1949353;72;21039;-73
2022/05/04 02:03:40;;;;;;;30.10;15.43;;;;;;;10.71;100.00;101517.50;1924972;73;21080;-73
2022/05/04 02:06:08;;;;;;;25.02;13.43;;;;;;;10.29;100.00;101519.34;1944012;72;21490;-73
2022/05/04 02:08:36;;;;;;;29.37;13.98;;;;;;;10.56;100.00;101521.98;1944391;72;21111;-73
2022/05/04 02:11:04;;;;;;;25.08;12.55;;;;;;;10.67;100.00;101522.16;1948734;72;21125;-73
2022/05/04 02:13:32;;;;;;;28.62;13.80;;;;;;;10.73;100.00;101514.95;1936305;72;21147;-72
2022/05/04 02:15:59;;;;;;;23.67;13.50;;;;;;;10.73;100.00;101508.13;1941763;72;21050;-73
2022/05/04 02:18:27;;;;;;;23.80;14.87;;;;;;;10.71;100.00;101506.81;1961317;72;21186;-73
2022/05/04 02:20:54;;;;;;;28.12;15.05;;;;;;;10.53;100.00;101509.95;1961248;73;21087;-73
2022/05/04 02:23:22;;;;;;;26.65;13.72;;;;;;;10.50;100.00;101510.34;1937386;72;20990;-73
2022/05/04 02:25:49;;;;;;;29.25;13.93;;;;;;;10.54;100.00;101514.69;1961476;71;21535;-73
2022/05/04 02:28:17;;;;;;;29.82;14.53;;;;;;;10.57;100.00;101525.87;1960091;72;21031;-74
2022/05/04 02:30:44;;;;;;;29.12;15.95;;;;;;;10.43;100.00;101522.16;1959745;72;21094;-74
2022/05/04 02:33:14;;;;;;;27.80;15.48;;;;;;;10.39;100.00;101526.80;1961262;72;21173;-74
2022/05/04 02:38:27;;;;;;;29.55;15.23;;;;;;;10.28;100.00;101531.34;1960891;73;21110;-73
2022/05/04 02:40:55;;;;;;;28.02;15.10;;;;;;;10.22;100.00;101534.23;1959750;71;21050;-74
2022/05/04 02:43:22;;;;;;;29.52;14.75;;;;;;;10.18;100.00;101534.58;1962968;73;21102;-73
2022/05/04 02:45:50;;;;;;;25.75;13.70;;;;;;;10.18;100.00;101543.56;1962881;72;21058;-73
2022/05/04 02:48:17;;;;;;;25.23;13.03;;;;;;;10.23;100.00;101543.22;1962915;73;21091;-73
2022/05/04 02:50:44;;;;;;;27.50;14.70;;;;;;;10.22;100.00;101549.20;1962762;73;21127;-73
2022/05/04 02:53:12;;;;;;;26.95;13.45;;;;;;;10.20;100.00;101550.89;1962923;73;21553;-73
2022/05/04 02:55:39;;;;;;;25.62;13.25;;;;;;;10.15;100.00;101559.78;1963035;73;21042;-72
2022/05/04 02:58:07;;;;;;;29.50;14.23;;;;;;;10.17;100.00;101555.97;1962953;71;21116;-72
2022/05/04 03:00:34;;;;;;;28.23;14.18;;;;;;;10.15;100.00;101557.62;1924310;73;21037;-72
2022/05/04 03:03:02;;;;;;;25.62;13.78;;;;;;;10.29;100.00;101562.61;1958289;72;21128;-72
2022/05/04 03:05:29;;;;;;;30.50;14.65;;;;;;;10.15;100.00;101560.19;1960067;73;21114;-72
2022/05/04 03:07:56;;;;;;;29.40;14.25;;;;;;;10.14;100.00;101571.31;1922364;72;21100;-72
2022/05/04 03:10:24;;;;;;;27.25;14.63;;;;;;;10.17;100.00;101571.38;1958515;72;21006;-72
2022/05/04 03:12:51;;;;;;;29.72;15.25;;;;;;;9.85;100.00;101571.17;1958314;72;21088;-73
2022/05/04 03:15:19;;;;;;;27.65;14.15;;;;;;;9.76;100.00;101574.45;1939864;72;21490;-72
2022/05/04 03:17:46;;;;;;;31.70;15.18;;;;;;;9.85;100.00;101578.87;1916886;73;21132;-73
2022/05/04 03:20:14;;;;;;;28.55;14.50;;;;;;;9.88;100.00;101580.23;1930616;72;21017;-72
2022/05/04 03:22:41;;;;;;;29.75;13.62;;;;;;;10.02;100.00;101582.22;1926024;73;21017;-72
2022/05/04 03:25:10;;;;;;;27.50;14.63;;;;;;;9.98;100.00;101581.28;1916484;73;21151;-73
2022/05/04 03:27:37;;;;;;;27.20;13.93;;;;;;;9.94;100.00;101591.04;1939881;72;21486;-73
2022/05/04 03:30:06;;;;;;;32.20;13.98;;;;;;;10.00;100.00;101592.86;1903661;75;21032;-73
2022/05/04 03:32:33;;;;;;;29.52;14.95;;;;;;;9.94;100.00;101584.62;1915487;73;21036;-73
2022/05/04 03:35:02;;;;;;;29.95;14.43;;;;;;;9.95;100.00;101583.78;1918540;73;21061;-73
2022/05/04 03:37:29;;;;;;;28.17;14.03;;;;;;;9.97;100.00;101588.55;1923275;73;21126;-73
2022/05/04 03:39:57;;;;;;;26.12;14.23;;;;;;;9.83;100.00;101597.65;1932118;73;21185;-73
2022/05/04 03:42:24;;;;;;;27.48;13.72;;;;;;;9.77;100.00;101594.12;1914451;73;21304;-73
2022/05/04 03:44:52;;;;;;;29.35;15.45;;;;;;;9.80;100.00;101599.74;1917492;73;21073;-73
2022/05/04 03:47:20;;;;;;;29.80;14.75;;;;;;;9.95;100.00;101601.75;1917366;73;20990;-73
2022/05/04 03:49:47;;;;;;;27.62;14.73;;;;;;;9.96;100.00;101612.89;1936918;72;21563;-73
2022/05/04 03:52:14;;;;;;;25.57;13.75;;;;;;;9.97;100.00;101625.77;1923461;72;21689;-73
2022/05/04 03:54:42;;;;;;;29.50;14.83;;;;;;;9.93;100.00;101631.67;1930502;73;21084;-73
2022/05/04 03:57:09;;;;;;;29.52;14.58;;;;;;;9.99;100.00;101639.52;1940417;73;21103;-73
2022/05/04 03:59:37;;;;;;;29.32;13.65;;;;;;;10.10;100.00;101638.85;1939268;72;21477;-73
2022/05/04 04:02:05;;;;;;;30.17;14.65;;;;;;;10.01;100.00;101639.11;1916734;73;21119;-72
2022/05/04 04:04:32;;;;;;;28.12;13.62;;;;;;;10.02;100.00;101636.98;1939897;72;21146;-73
2022/05/04 04:06:59;;;;;;;28.85;14.18;;;;;;;10.11;100.00;101631.59;1929661;72;21025;-73
2022/05/04 04:09:27;;;;;;;28.23;14.90;;;;;;;10.10;100.00;101636.28;1928566;73;21119;-73
2022/05/04 04:11:54;;;;;;;31.27;14.25;;;;;;;10.01;100.00;101633.10;1938289;73;21021;-73
2022/05/04 04:14:21;;;;;;;30.48;14.70;;;;;;;10.17;100.00;101631.72;1900587;73;21513;-73
2022/05/04 04:16:49;;;;;;;26.35;13.93;;;;;;;10.09;100.00;101629.42;1926984;72;21502;-73
2022/05/04 04:19:17;;;;;;;30.57;15.05;;;;;;;10.15;100.00;101628.25;1946824;72;21003;-73
2022/05/04 04:21:53;;;;;;;28.87;14.43;;;;;;;10.10;100.00;101629.86;1944501;74;21100;-73
2022/05/04 04:24:22;;;;;;;27.13;13.35;;;;;;;10.08;100.00;101628.98;1944331;72;21050;-73
2022/05/04 04:26:50;;;;;;;28.77;15.20;;;;;;;10.14;100.00;101635.10;1945881;74;21021;-73
2022/05/04 04:29:17;;;;;;;29.72;15.20;;;;;;;10.05;100.00;101635.77;1941557;74;21120;-74
2022/05/04 04:31:45;;;;;;;28.75;13.85;;;;;;;10.06;100.00;101640.06;1906967;74;21121;-73
2022/05/04 04:34:12;;;;;;;30.77;14.65;;;;;;;10.02;100.00;101638.27;1944117;74;21086;-73
2022/05/04 04:36:40;;;;;;;27.02;13.45;;;;;;;10.13;100.00;101638.92;1945490;72;21478;-73
2022/05/04 04:39:08;;;;;;;26.87;14.87;;;;;;;10.22;100.00;101641.66;1948309;72;21022;-73
2022/05/04 04:41:35;;;;;;;30.68;14.33;;;;;;;10.03;100.00;101639.15;1945276;73;21682;-73
2022/05/04 04:44:03;;;;;;;32.75;15.35;;;;;;;10.32;100.00;101639.73;1946882;74;21046;-73
2022/05/04 04:46:30;;;;;;;28.45;13.85;;;;;;;10.39;100.00;101648.83;1946188;74;21604;-73
2022/05/04 04:48:58;;;;;;;25.77;13.72;;;;;;;10.32;100.00;101646.56;1944236;73;21088;-73
2022/05/04 04:51:25;;;;;;;29.52;14.83;;;;;;;10.38;100.00;101654.81;1944846;72;21013;-73
2022/05/04 04:53:53;;;;;;;30.17;15.35;;;;;;;10.13;100.00;101646.63;1946610;72;21446;-73
2022/05/04 04:56:20;;;;;;;29.85;14.55;;;;;;;10.30;100.00;101657.23;1946494;74;21030;-73
2022/05/04 04:58:47;;;;;;;30.40;13.80;;;;;;;10.30;100.00;101654.67;1944316;74;21690;-73
2022/05/04 05:01:15;;;;;;;28.73;13.85;;;;;;;10.46;100.00;101650.71;1939313;73;21565;-72
2022/05/04 05:03:42;;;;;;;31.95;15.00;;;;;;;10.25;100.00;101649.84;1944076;74;21026;-72
2022/05/04 05:06:18;;;;;;;28.95;13.93;;;;;;;10.20;100.00;101650.61;1920772;73;21022;-72
2022/05/04 05:08:44;;;;;;;31.77;14.75;;;;;;;10.29;100.00;101652.52;1941976;72;21083;-72
2022/05/04 05:11:12;;;;;;;29.27;14.45;;;;;;;10.39;100.00;101655.25;1944923;72;21128;-72
2022/05/04 05:16:08;;;;;;;30.43;15.78;;;;;;;10.45;100.00;101655.41;1863609;76;21155;-72
2022/05/04 05:18:37;;;;;;;29.35;14.85;;;;;;;10.49;100.00;101666.60;1935761;72;21544;-72
2022/05/04 05:21:04;;;;;;;29.02;14.60;;;;;;;10.56;100.00;101660.34;1952486;71;21107;-73
2022/05/04 05:23:32;;;;;;;29.72;16.00;;;;;;;10.39;100.00;101666.80;1955636;71;21025;-73
2022/05/04 05:26:00;;;;;;;30.25;14.68;;;;;;;10.43;100.00;101662.17;1959563;71;21140;-72
2022/05/04 05:28:27;;;;;;;30.12;15.85;;;;;;;10.25;100.00;101654.98;1960803;72;20990;-72
2022/05/04 05:30:55;;;;;;;30.30;15.68;;;;;;;10.35;100.00;101661.16;1965269;71;21929;-73
2022/05/04 05:33:22;;;;;;;32.70;15.40;;;;;;;10.37;100.00;101662.08;1968109;71;21052;-73
2022/05/04 05:35:50;;;;;;;24.43;13.88;;;;;;;10.58;100.00;101666.36;1963036;71;21055;-73
2022/05/04 05:38:17;;;;;;;24.95;15.48;;;;;;;10.60;100.00;101665.55;1939356;72;21079;-73
2022/05/04 05:40:45;;;;;;;33.15;16.75;;;;;;;10.67;100.00;101664.79;1970935;72;21068;-73
2022/05/04 05:43:12;;;;;;;25.75;14.78;;;;;;;10.55;100.00;101666.73;1975029;71;21163;-73
2022/05/04 05:45:39;;;;;;;29.12;14.25;;;;;;;10.50;100.00;101671.77;1976205;72;21233;-73
2022/05/04 05:48:07;;;;;;;31.27;15.00;;;;;;;10.74;100.00;101682.50;1899744;72;21178;-73
2022/05/04 05:50:35;;;;;;;29.57;15.10;;;;;;;10.79;100.00;101683.45;1975968;72;21051;-73
2022/05/04 05:53:03;;;;;;;29.20;15.40;;;;;;;10.87;100.00;101684.44;1972715;71;21746;-73
2022/05/04 05:55:31;;;;;;;32.50;15.68;;;;;;;10.90;100.00;101686.20;1972536;71;21052;-73
2022/05/04 05:58:01;;;;;;;30.00;14.60;;;;;;;10.88;100.00;101685.32;1932415;72;21421;-73
2022/05/04 06:00:29;;;;;;;26.73;14.43;;;;;;;11.00;100.00;101686.81;1972890;71;22672;-72
2022/05/04 06:02:56;;;;;;;26.50;14.70;;;;;;;10.97;100.00;101695.75;1972303;72;21116;-72
2022/05/04 06:05:24;;;;;;;32.13;16.32;;;;;;;11.02;100.00;101691.55;1972213;72;21170;-72
2022/05/04 06:07:51;;;;;;;30.68;15.53;;;;;;;11.05;100.00;101694.59;1974702;72;21115;-73
2022/05/04 06:10:18;;;;;;;31.02;15.78;;;;;;;11.05;100.00;101696.75;1931290;72;21138;-73
2022/05/04 06:12:46;;;;;;;35.00;15.90;;;;;;;11.30;100.00;101705.31;1969808;70;21534;-73
2022/05/04 06:15:14;;;;;;;30.52;17.20;;;;;;;11.19;100.00;101700.84;1973982;71;21097;-73
2022/05/04 06:17:44;;;;;;;27.90;14.45;;;;;;;11.34;100.00;101696.36;1973310;72;21199;-72
2022/05/04 06:20:11;;;;;;;32.10;15.55;;;;;;;11.35;100.00;101696.83;1973579;71;21143;-73
2022/05/04 06:22:39;;;;;;;35.05;16.37;;;;;;;11.46;100.00;101695.70;1971974;71;21171;-73
2022/05/04 06:25:07;;;;;;;29.75;15.13;;;;;;;11.54;100.00;101697.54;1973343;72;21120;-73
2022/05/04 06:27:34;;;;;;;28.10;14.70;;;;;;;11.42;100.00;101694.34;1976015;71;21048;-73
2022/05/04 06:35:32;;;;;;;24.60;15.13;;;;;;;11.52;100.00;101696.22;1973952;71;21201;-73
2022/05/04 06:38:00;;;;;;;29.45;16.32;;;;;;;11.66;100.00;101694.27;1971964;71;21078;-73
2022/05/04 06:40:27;;;;;;;31.25;15.85;;;;;;;11.70;100.00;101696.92;1972291;70;21143;-74
2022/05/04 06:42:55;;;;;;;27.32;14.80;;;;;;;11.67;100.00;101705.88;1975312;72;21150;-73
2022/05/04 06:45:23;;;;;;;26.50;15.23;;;;;;;12.05;100.00;101709.83;1934401;71;21201;-74
2022/05/04 06:47:50;;;;;;;28.47;14.63;;;;;;;12.13;100.00;101717.68;1974390;72;21110;-74
2022/05/04 06:50:18;;;;;;;29.55;15.10;;;;;;;12.30;100.00;101708.88;1976410;70;21133;-73
2022/05/04 06:52:45;;;;;;;28.42;14.83;;;;;;;12.19;100.00;101711.33;1973766;72;21048;-74
2022/05/04 06:55:13;;;;;;;27.87;16.00;;;;;;;12.10;100.00;101709.49;1930087;73;21058;-73
2022/05/04 06:57:41;;;;;;;28.40;15.55;;;;;;;12.37;100.00;101711.98;1962385;72;21077;-73
2022/05/04 07:00:10;;;;;;;28.45;14.93;;;;;;;12.30;100.00;101714.48;1962891;73;21120;-73
2022/05/04 07:02:37;;;;;;;27.77;14.47;;;;;;;12.56;100.00;101712.20;1960343;72;21113;-73
2022/05/04 07:05:07;;;;;;;29.92;15.00;;;;;;;12.82;100.00;101710.30;1962327;71;21134;-73
2022/05/04 07:07:34;;;;;;;23.02;13.35;;;;;;;12.60;100.00;101706.64;1963111;73;21567;-73
2022/05/04 07:10:02;;;;;;;23.67;14.47;;;;;;;12.87;100.00;101718.95;1962953;71;21041;-73
2022/05/04 07:12:29;;;;;;;29.15;15.60;;;;;;;12.92;100.00;101715.55;1959949;72;21127;-73
2022/05/04 07:14:57;;;;;;;29.87;15.23;;;;;;;13.01;100.00;101724.69;1939783;72;21147;-74
2022/05/04 07:17:26;;;;;;;26.90;14.78;;;;;;;13.13;100.00;101715.77;1961036;73;21131;-73
2022/05/04 07:19:54;;;;;;;25.77;13.78;;;;;;;13.42;100.00;101714.28;1945300;73;21146;-73
2022/05/04 07:22:24;;;;;;;23.10;13.30;;;;;;;13.54;100.00;101709.65;1938301;72;21108;-73
2022/05/04 07:24:53;;;;;;;23.20;14.95;;;;;;;13.56;100.00;101706.67;1907833;73;21068;-72
2022/05/04 07:27:20;;;;;;;25.65;14.33;;;;;;;13.44;100.00;101707.39;1928361;73;21048;-73
2022/05/04 07:29:48;;;;;;;24.00;13.88;;;;;;;13.42;100.00;101709.96;1915228;73;21086;-72
2022/05/04 07:32:15;;;;;;;22.00;13.50;;;;;;;13.85;100.00;101711.14;1909317;73;21092;-72
2022/05/04 07:34:43;;;;;;;29.27;16.27;;;;;;;13.89;100.00;101702.97;1937370;73;21072;-72
2022/05/04 07:37:11;;;;;;;28.92;14.78;;;;;;;13.77;100.00;101703.78;1938246;72;21072;-73
2022/05/04 07:42:26;;;;;;;30.30;14.20;;;;;;;14.25;100.00;101703.15;1916203;73;21126;-73
2022/05/04 07:45:06;;;;;;;26.57;14.05;;;;;;;14.37;100.00;101704.48;1916875;73;21134;-73
2022/05/04 07:47:35;;;;;;;20.95;12.47;;;;;;;14.32;100.00;101702.32;1917712;73;21058;-73
2022/05/04 07:50:05;;;;;;;27.25;13.80;;;;;;;14.47;100.00;101691.58;1885742;73;21089;-73
2022/05/04 07:52:33;;;;;;;21.52;12.98;;;;;;;14.42;100.00;101695.46;1917559;73;21203;-73
2022/05/04 07:55:00;;;;;;;26.20;14.30;;;;;;;14.55;100.00;101690.75;1886448;73;21136;-73
2022/05/04 07:57:28;;;;;;;25.95;13.70;;;;;;;14.70;100.00;101689.91;1887772;74;21114;-73
2022/05/04 08:05:28;;;;;;;24.32;13.48;;;;;;;14.57;100.00;101672.65;1918873;73;21141;-73
2022/05/04 08:07:55;;;;;;;26.27;13.20;;;;;;;14.87;100.00;101670.14;1915350;73;21538;-76
2022/05/04 08:10:23;;;;;;;20.52;11.15;;;;;;;15.15;100.00;101667.55;1919319;73;21093;-75
2022/05/04 08:12:51;;;;;;;21.62;12.55;;;;;;;15.40;100.00;101664.52;1884808;73;21492;-73
2022/05/04 08:15:19;;;;;;;23.62;12.30;;;;;;;15.43;100.00;101650.23;1917121;73;21137;-74
2022/05/04 08:17:46;;;;;;;24.40;13.53;;;;;;;15.63;100.00;101645.45;1918338;73;21529;-73
2022/05/04 08:20:14;;;;;;;23.65;14.70;;;;;;;15.80;100.00;101644.52;1944417;72;21061;-73
2022/05/04 08:22:43;;;;;;;21.75;12.85;;;;;;;16.44;100.00;101634.76;1967761;72;21113;-73
2022/05/04 08:25:11;;;;;;;19.05;12.23;;;;;;;16.33;100.00;101613.22;1968850;72;21143;-71
2022/05/04 08:27:38;;;;;;;19.70;11.03;;;;;;;16.88;100.00;101600.25;1968943;72;21626;-71
2022/05/04 08:30:07;;;;;;;18.07;10.70;;;;;;;17.11;100.00;101594.45;1967861;72;21168;-73
2022/05/04 08:32:34;;;;;;;21.30;12.28;;;;;;;17.08;100.00;101588.84;1972127;72;21041;-73
2022/05/04 08:35:02;;;;;;;18.12;12.15;;;;;;;17.21;100.00;101586.13;1935952;72;21233;-73
2022/05/04 08:37:29;;;;;;;18.98;12.93;;;;;;;17.07;100.00;101588.44;1968487;70;21075;-73
2022/05/04 08:39:58;;;;;;;23.30;11.95;;;;;;;17.11;100.00;101581.46;1962838;72;21143;-73
2022/05/04 08:42:25;;;;;;;16.80;10.95;;;;;;;16.83;100.00;101585.16;1937738;72;20990;-73
2022/05/04 08:44:58;;;;;;;15.32;10.03;;;;;;;17.22;100.00;101582.21;1965065;72;21117;-73
2022/05/04 08:47:28;;;;;;;17.40;10.65;;;;;;;17.20;100.00;101582.69;1966478;72;21041;-72
2022/05/04 08:49:56;;;;;;;26.35;11.48;;;;;;;17.03;100.00;101583.66;1968052;72;21096;-73
2022/05/04 08:52:23;;;;;;;21.48;10.88;;;;;;;16.56;100.00;101582.34;1966071;71;21099;-72
2022/05/04 08:54:51;;;;;;;16.80;10.53;;;;;;;16.94;100.00;101592.84;1970223;70;21172;-73
2022/05/04 08:57:18;;;;;;;21.17;10.68;;;;;;;16.92;100.00;101593.31;1939423;72;21109;-72
2022/05/04 08:59:46;;;;;;;18.48;9.90;;;;;;;17.15;100.00;101597.00;1967463;72;21081;-73
2022/05/04 09:02:14;;;;;;;17.10;9.90;;;;;;;17.22;100.00;101599.09;1969497;72;21124;-73
2022/05/04 09:04:42;;;;;;;20.52;9.18;;;;;;;16.87;100.00;101602.42;1936967;72;21132;-72
2022/05/04 09:07:26;;;;;;;15.38;9.38;;;;;;;16.73;100.00;101596.06;1910157;72;21151;-72
2022/05/04 09:09:53;;;;;;;;;;;;;;;17.10;100.00;101600.52;1970757;72;21014;-73
2022/05/04 09:12:21;;;;;;;15.35;8.03;;;;;;;17.22;100.00;101600.39;1967959;72;20210;-73
2022/05/04 09:14:48;;;;;;;13.68;8.70;;;;;;;17.21;100.00;101606.47;1969322;72;21076;-73
2022/05/04 09:17:17;;;;;;;14.93;9.08;;;;;;;17.11;100.00;101597.04;1938609;72;21144;-72
2022/05/04 09:22:41;;;;;;;19.10;9.48;;;;;;;17.08;100.00;101599.66;1963337;72;21451;-72
2022/05/04 09:25:20;;;;;;;13.15;8.30;;;;;;;17.26;100.00;101591.69;1967319;71;21694;-73
2022/05/04 09:27:48;;;;;;;17.95;9.25;;;;;;;17.44;100.00;101596.70;1934504;72;21640;-72
2022/05/04 09:30:16;;;;;;;18.77;9.63;;;;;;;18.13;100.00;101598.05;1967033;72;21085;-72
2022/05/04 09:32:44;;;;;;;16.45;9.58;;;;;;;18.29;100.00;101597.36;1965621;72;21099;-73
2022/05/04 09:35:15;;;;;;;18.62;9.65;;;;;;;18.61;100.00;101594.70;1967589;72;21130;-72
2022/05/04 09:46:05;;;;;;;15.68;8.95;;;;;;;18.99;100.00;101598.83;1966160;72;21602;-72
2022/05/04 09:48:34;;;;;;;14.00;9.40;;;;;;;18.60;100.00;101599.48;1965201;72;21085;-73
2022/05/04 09:51:07;;;;;;;17.73;10.03;;;;;;;18.71;100.00;101601.91;1964434;72;21086;-73
2022/05/04 09:53:36;;;;;;;13.28;7.95;;;;;;;19.14;100.00;101602.92;1965837;72;21089;-72
2022/05/04 09:56:04;;;;;;;12.37;8.35;;;;;;;18.77;100.00;101595.31;1964884;72;21676;-72
2022/05/04 09:58:32;;;;;;;12.58;7.85;;;;;;;18.58;100.00;101606.91;1955228;72;21514;-73
2022/05/04 10:01:00;;;;;;;13.10;9.25;;;;;;;18.62;100.00;101605.97;1949093;72;21102;-72
2022/05/04 10:03:28;;;;;;;20.68;9.33;;;;;;;19.38;100.00;101621.58;1951566;72;21104;-72
2022/05/04 10:05:56;;;;;;;13.20;8.48;;;;;;;19.38;100.00;101621.58;1951277;73;21128;-72
2022/05/04 10:08:24;;;;;;;13.68;8.13;;;;;;;19.92;100.00;101601.39;1949953;72;21155;-73
2022/05/04 10:10:54;;;;;;;10.82;7.83;;;;;;;20.84;100.00;101610.16;1950180;72;21115;-72
2022/05/04 10:13:23;;;;;;;11.53;7.97;;;;;;;20.64;100.00;101621.96;1949607;73;21050;-73
2022/05/04 10:15:53;;;;;;;13.48;8.13;;;;;;;20.55;100.00;101626.11;1950228;72;21122;-73
2022/05/04 10:18:26;;;;;;;11.53;7.67;;;;;;;20.45;100.00;101628.08;1951523;72;21178;-73
2022/05/04 10:21:12;;;;;;;15.70;7.05;;;;;;;20.63;100.00;101617.17;1947098;72;21027;-73
2022/05/04 10:23:42;;;;;;;11.73;6.53;;;;;;;21.30;100.00;101622.48;1926457;72;21108;-73
2022/05/04 10:26:13;;;;;;;11.68;5.67;;;;;;;21.61;100.00;101626.84;1908183;73;21136;-73
2022/05/04 10:31:30;;;;;;;8.38;5.17;;;;;;;20.88;100.00;101638.78;1916571;74;21086;-73
2022/05/04 10:33:58;;;;;;;10.93;4.70;;;;;;;21.59;100.00;101645.62;1937145;72;21110;-73
2022/05/04 10:36:30;;;;;;;9.40;5.55;;;;;;;20.29;100.00;101644.09;1935209;74;21042;-73
2022/05/04 10:39:06;;;;;;;9.80;6.13;;;;;;;20.10;100.00;101649.71;1936000;72;21478;-73
2022/05/04 10:41:37;;;;;;;8.95;6.03;;;;;;;20.17;100.00;101650.43;1925111;72;21152;-73
2022/05/04 10:44:06;;;;;;;5.08;3.92;;;;;;;20.14;100.00;101641.83;1911459;73;21046;-73
2022/05/04 10:46:34;;;;;;;5.87;4.30;;;;;;;20.31;100.00;101651.42;1926092;74;21145;-73
2022/05/04 10:49:04;;;;;;;7.30;5.05;;;;;;;21.29;100.00;101642.98;1916978;73;21059;-73
2022/05/04 10:51:34;;;;;;;7.62;5.78;;;;;;;21.14;100.00;101651.63;1934525;72;21062;-73
2022/05/04 10:54:11;;;;;;;8.25;4.45;;;;;;;20.58;100.00;101647.77;1935373;72;21214;-73
2022/05/04 10:56:47;;;;;;;7.42;4.80;;;;;;;20.60;100.00;101651.18;1912683;72;21116;-73
2022/05/04 10:59:13;;;;;;;7.40;4.53;;;;;;;19.94;100.00;101658.73;1935370;74;21094;-73
2022/05/04 11:01:42;;;;;;;6.78;4.08;;;;;;;20.54;100.00;101651.34;1937897;72;21517;-72
2022/05/04 11:04:15;;;;;;;8.80;5.00;;;;;;;20.59;100.00;101652.55;1924343;72;21094;-73
2022/05/04 11:06:55;;;;;;;7.62;4.70;;;;;;;20.97;100.00;101642.08;1934709;72;21539;-73
2022/05/04 11:09:25;;;;;;;6.00;4.65;;;;;;;21.07;100.00;101646.63;1934487;72;21119;-73
2022/05/04 11:11:55;;;;;;;10.40;6.62;;;;;;;20.80;100.00;101652.92;1934634;72;21560;-73
2022/05/04 11:14:23;;;;;;;8.83;5.87;;;;;;;21.14;100.00;101646.41;1921050;72;21135;-73
2022/05/04 11:16:55;;;;;;;12.35;6.87;;;;;;;21.95;100.00;101645.09;1913664;72;21010;-73
2022/05/04 11:19:32;;;;;;;12.43;8.20;;;;;;;21.59;100.00;101644.80;1937065;72;21007;-73
2022/05/04 11:22:01;;;;;;;10.15;8.03;;;;;;;20.74;100.00;101654.76;1933846;73;21105;-73
2022/05/04 11:24:30;;;;;;;14.03;8.53;;;;;;;19.74;100.00;101652.17;1901790;73;21278;-73
2022/05/04 11:26:57;;;;;;;13.83;8.55;;;;;;;19.03;100.00;101633.04;1932518;73;21026;-72
2022/05/04 11:29:27;;;;;;;13.75;8.98;;;;;;;19.03;100.00;101633.04;1934398;73;21038;-73
2022/05/04 11:32:01;;;;;;;13.48;8.15;;;;;;;18.89;100.00;101635.05;1933475;74;21011;-73
2022/05/04 11:34:34;;;;;;;11.10;7.08;;;;;;;18.86;100.00;101626.81;1931885;72;21086;-73
2022/05/04 11:37:07;;;;;;;17.50;8.00;;;;;;;18.65;100.00;101629.36;1932086;74;21107;-72
2022/05/04 11:39:35;;;;;;;10.88;7.40;;;;;;;18.72;100.00;101624.91;1936083;74;21291;-72
2022/05/04 11:42:05;;;;;;;15.00;8.35;;;;;;;19.06;100.00;101616.09;1936684;73;21046;-72
2022/05/04 11:44:32;;;;;;;14.35;8.40;;;;;;;19.06;100.00;101616.09;1936883;74;21070;-72
2022/05/04 11:47:01;;;;;;;12.37;7.40;;;;;;;19.20;100.00;101631.91;1931677;73;21124;-72